sensor_id;sensor_type;location;lat;lon;timestamp;temperature;humidity
4727;DHT22;2377;51.734;8.950;2022-08-05T00:00:22;22.80;99.90
4727;DHT22;2377;51.734;8.950;2022-08-05T00:02:50;22.70;99.90
4727;DHT22;2377;51.734;8.950;2022-08-05T00:05:17;22.70;99.90
4727;DHT22;2377;51.734;8.950;2022-08-05T00:07:44;22.60;99.90
4727;DHT22;2377;51.734;8.950;2022-08-05T00:10:11;22.60;99.90
4727;DHT22;2377;51.734;8.950;2022-08-05T00:12:40;22.60;99.90
4727;DHT22;2377;51.734;8.950;2022-08-05T00:15:08;22.60;99.90
4727;DHT22;2377;51.734;8.950;2022-08-05T00:17:35;22.60;99.90
4727;DHT22;2377;51.734;8.950;2022-08-05T00:20:03;22.60;99.90
4727;DHT22;2377;51.734;8.950;2022-08-05T00:22:31;22.60;99.90
4727;DHT22;2377;51.734;8.950;2022-08-05T00:24:58;22.50;99.90
4727;DHT22;2377;51.734;8.950;2022-08-05T00:27:25;22.50;99.90
4727;DHT22;2377;51.734;8.950;2022-08-05T00:29:56;22.50;99.90
4727;DHT22;2377;51.734;8.950;2022-08-05T00:32:23;22.40;99.90
4727;DHT22;2377;51.734;8.950;2022-08-05T00:34:50;22.30;99.90
4727;DHT22;2377;51.734;8.950;2022-08-05T00:37:17;22.30;99.90
4727;DHT22;2377;51.734;8.950;2022-08-05T00:39:44;22.30;99.90
4727;DHT22;2377;51.734;8.950;2022-08-05T00:42:11;22.20;99.90
4727;DHT22;2377;51.734;8.950;2022-08-05T00:44:41;22.10;99.90
4727;DHT22;2377;51.734;8.950;2022-08-05T00:47:09;22.10;99.90
4727;DHT22;2377;51.734;8.950;2022-08-05T00:49:36;22.10;99.90
4727;DHT22;2377;51.734;8.950;2022-08-05T00:52:03;22.00;99.90
4727;DHT22;2377;51.734;8.950;2022-08-05T00:54:31;21.90;99.90
4727;DHT22;2377;51.734;8.950;2022-08-05T00:56:58;21.80;99.90
4727;DHT22;2377;51.734;8.950;2022-08-05T00:59:25;21.80;99.90
4727;DHT22;2377;51.734;8.950;2022-08-05T01:01:52;21.80;99.90
4727;DHT22;2377;51.734;8.950;2022-08-05T01:04:20;21.60;99.90
4727;DHT22;2377;51.734;8.950;2022-08-05T01:06:47;21.60;99.90
4727;DHT22;2377;51.734;8.950;2022-08-05T01:09:15;21.60;99.90
4727;DHT22;2377;51.734;8.950;2022-08-05T01:11:43;21.60;99.90
4727;DHT22;2377;51.734;8.950;2022-08-05T01:14:23;21.60;99.90
4727;DHT22;2377;51.734;8.950;2022-08-05T01:17:01;21.60;99.90
4727;DHT22;2377;51.734;8.950;2022-08-05T01:19:38;21.50;99.90
4727;DHT22;2377;51.734;8.950;2022-08-05T01:22:29;21.50;99.90
4727;DHT22;2377;51.734;8.950;2022-08-05T01:25:37;21.50;99.90
4727;DHT22;2377;51.734;8.950;2022-08-05T01:28:23;21.60;99.90
4727;DHT22;2377;51.734;8.950;2022-08-05T01:30:58;21.50;99.90
4727;DHT22;2377;51.734;8.950;2022-08-05T01:33:34;21.60;99.90
4727;DHT22;2377;51.734;8.950;2022-08-05T01:36:08;21.60;99.90
4727;DHT22;2377;51.734;8.950;2022-08-05T01:38:39;21.50;99.90
4727;DHT22;2377;51.734;8.950;2022-08-05T01:41:08;21.50;99.90
4727;DHT22;2377;51.734;8.950;2022-08-05T01:43:40;21.30;99.90
4727;DHT22;2377;51.734;8.950;2022-08-05T01:46:08;21.10;99.90
4727;DHT22;2377;51.734;8.950;2022-08-05T01:48:35;20.80;99.90
4727;DHT22;2377;51.734;8.950;2022-08-05T01:51:04;20.70;99.90
4727;DHT22;2377;51.734;8.950;2022-08-05T01:53:35;20.60;99.90
4727;DHT22;2377;51.734;8.950;2022-08-05T01:56:05;20.60;99.90
4727;DHT22;2377;51.734;8.950;2022-08-05T01:58:36;20.50;99.90
4727;DHT22;2377;51.734;8.950;2022-08-05T02:01:06;20.50;99.90
4727;DHT22;2377;51.734;8.950;2022-08-05T02:03:37;20.50;99.90
4727;DHT22;2377;51.734;8.950;2022-08-05T02:06:07;20.50;99.90
4727;DHT22;2377;51.734;8.950;2022-08-05T02:08:36;20.60;99.90
4727;DHT22;2377;51.734;8.950;2022-08-05T02:11:05;20.60;99.90
4727;DHT22;2377;51.734;8.950;2022-08-05T02:13:42;20.60;99.90
4727;DHT22;2377;51.734;8.950;2022-08-05T02:16:15;20.60;99.90
4727;DHT22;2377;51.734;8.950;2022-08-05T02:18:49;20.60;99.90
4727;DHT22;2377;51.734;8.950;2022-08-05T02:21:24;20.50;99.90
4727;DHT22;2377;51.734;8.950;2022-08-05T02:23:56;20.50;99.90
4727;DHT22;2377;51.734;8.950;2022-08-05T02:26:35;20.50;99.90
4727;DHT22;2377;51.734;8.950;2022-08-05T02:29:07;20.40;99.90
4727;DHT22;2377;51.734;8.950;2022-08-05T02:31:37;20.40;99.90
4727;DHT22;2377;51.734;8.950;2022-08-05T02:34:09;20.40;99.90
4727;DHT22;2377;51.734;8.950;2022-08-05T02:36:42;20.30;99.90
4727;DHT22;2377;51.734;8.950;2022-08-05T02:39:17;20.30;99.90
4727;DHT22;2377;51.734;8.950;2022-08-05T02:41:46;20.30;99.90
4727;DHT22;2377;51.734;8.950;2022-08-05T02:44:16;20.30;99.90
4727;DHT22;2377;51.734;8.950;2022-08-05T02:46:47;20.30;99.90
4727;DHT22;2377;51.734;8.950;2022-08-05T02:49:16;20.30;99.90
4727;DHT22;2377;51.734;8.950;2022-08-05T02:51:44;20.30;99.90
4727;DHT22;2377;51.734;8.950;2022-08-05T02:54:13;20.30;99.90
4727;DHT22;2377;51.734;8.950;2022-08-05T02:56:42;20.30;99.90
4727;DHT22;2377;51.734;8.950;2022-08-05T02:59:11;20.30;99.90
4727;DHT22;2377;51.734;8.950;2022-08-05T03:01:40;20.40;99.90
4727;DHT22;2377;51.734;8.950;2022-08-05T03:04:13;20.30;99.90
4727;DHT22;2377;51.734;8.950;2022-08-05T03:06:41;20.30;99.90
4727;DHT22;2377;51.734;8.950;2022-08-05T03:09:10;20.40;99.90
4727;DHT22;2377;51.734;8.950;2022-08-05T03:11:41;20.30;99.90
4727;DHT22;2377;51.734;8.950;2022-08-05T03:14:09;20.30;99.90
4727;DHT22;2377;51.734;8.950;2022-08-05T03:16:41;20.30;99.90
4727;DHT22;2377;51.734;8.950;2022-08-05T03:19:08;20.30;99.90
4727;DHT22;2377;51.734;8.950;2022-08-05T03:21:35;20.40;99.90
4727;DHT22;2377;51.734;8.950;2022-08-05T03:24:03;20.40;99.90
4727;DHT22;2377;51.734;8.950;2022-08-05T03:26:30;20.40;99.90
4727;DHT22;2377;51.734;8.950;2022-08-05T03:28:58;20.40;99.90
4727;DHT22;2377;51.734;8.950;2022-08-05T03:31:25;20.30;99.90
4727;DHT22;2377;51.734;8.950;2022-08-05T03:33:54;20.30;99.90
4727;DHT22;2377;51.734;8.950;2022-08-05T03:36:23;20.30;99.90
4727;DHT22;2377;51.734;8.950;2022-08-05T03:38:51;20.30;99.90
4727;DHT22;2377;51.734;8.950;2022-08-05T03:41:18;20.30;99.90
4727;DHT22;2377;51.734;8.950;2022-08-05T03:43:45;20.30;99.90
4727;DHT22;2377;51.734;8.950;2022-08-05T03:46:12;20.30;99.90
4727;DHT22;2377;51.734;8.950;2022-08-05T03:48:39;20.30;99.90
4727;DHT22;2377;51.734;8.950;2022-08-05T03:51:11;20.30;99.90
4727;DHT22;2377;51.734;8.950;2022-08-05T03:53:49;20.30;99.90
4727;DHT22;2377;51.734;8.950;2022-08-05T03:56:27;20.30;99.90
4727;DHT22;2377;51.734;8.950;2022-08-05T03:59:01;20.30;99.90
4727;DHT22;2377;51.734;8.950;2022-08-05T04:01:31;20.20;99.90
4727;DHT22;2377;51.734;8.950;2022-08-05T04:04:05;20.20;99.90
4727;DHT22;2377;51.734;8.950;2022-08-05T04:06:36;20.10;99.90
4727;DHT22;2377;51.734;8.950;2022-08-05T04:09:03;20.20;99.90
4727;DHT22;2377;51.734;8.950;2022-08-05T04:11:32;20.20;99.90
4727;DHT22;2377;51.734;8.950;2022-08-05T04:14:00;20.30;99.90
4727;DHT22;2377;51.734;8.950;2022-08-05T04:16:31;20.30;99.90
4727;DHT22;2377;51.734;8.950;2022-08-05T04:18:59;20.30;99.90
4727;DHT22;2377;51.734;8.950;2022-08-05T04:21:27;20.30;99.90
4727;DHT22;2377;51.734;8.950;2022-08-05T04:23:56;20.30;99.90
4727;DHT22;2377;51.734;8.950;2022-08-05T04:26:23;20.20;99.90
4727;DHT22;2377;51.734;8.950;2022-08-05T04:28:50;20.20;99.90
4727;DHT22;2377;51.734;8.950;2022-08-05T04:31:18;20.10;99.90
4727;DHT22;2377;51.734;8.950;2022-08-05T04:33:45;20.10;99.90
4727;DHT22;2377;51.734;8.950;2022-08-05T04:36:12;20.10;99.90
4727;DHT22;2377;51.734;8.950;2022-08-05T04:38:41;20.10;99.90
4727;DHT22;2377;51.734;8.950;2022-08-05T04:41:10;20.10;99.90
4727;DHT22;2377;51.734;8.950;2022-08-05T04:43:37;20.10;99.90
4727;DHT22;2377;51.734;8.950;2022-08-05T04:46:05;20.10;99.90
4727;DHT22;2377;51.734;8.950;2022-08-05T04:48:32;20.10;99.90
4727;DHT22;2377;51.734;8.950;2022-08-05T04:50:59;20.10;99.90
4727;DHT22;2377;51.734;8.950;2022-08-05T04:53:26;20.10;99.90
4727;DHT22;2377;51.734;8.950;2022-08-05T04:55:54;20.10;99.90
4727;DHT22;2377;51.734;8.950;2022-08-05T04:58:22;20.10;99.90
4727;DHT22;2377;51.734;8.950;2022-08-05T05:00:49;20.10;99.90
4727;DHT22;2377;51.734;8.950;2022-08-05T05:03:16;20.00;99.90
4727;DHT22;2377;51.734;8.950;2022-08-05T05:05:43;19.90;99.90
4727;DHT22;2377;51.734;8.950;2022-08-05T05:08:10;19.80;99.90
4727;DHT22;2377;51.734;8.950;2022-08-05T05:10:40;19.60;99.90
4727;DHT22;2377;51.734;8.950;2022-08-05T05:13:08;19.50;99.90
4727;DHT22;2377;51.734;8.950;2022-08-05T05:15:37;19.40;99.90
4727;DHT22;2377;51.734;8.950;2022-08-05T05:18:05;19.40;99.90
4727;DHT22;2377;51.734;8.950;2022-08-05T05:20:34;19.40;99.90
4727;DHT22;2377;51.734;8.950;2022-08-05T05:23:02;19.50;99.90
4727;DHT22;2377;51.734;8.950;2022-08-05T05:25:30;19.50;99.90
4727;DHT22;2377;51.734;8.950;2022-08-05T05:27:57;19.60;99.90
4727;DHT22;2377;51.734;8.950;2022-08-05T05:30:24;19.60;99.90
4727;DHT22;2377;51.734;8.950;2022-08-05T05:32:53;19.60;99.90
4727;DHT22;2377;51.734;8.950;2022-08-05T05:35:20;19.50;99.90
4727;DHT22;2377;51.734;8.950;2022-08-05T05:37:48;19.50;99.90
4727;DHT22;2377;51.734;8.950;2022-08-05T05:40:18;19.50;99.90
4727;DHT22;2377;51.734;8.950;2022-08-05T05:42:46;19.50;99.90
4727;DHT22;2377;51.734;8.950;2022-08-05T05:45:14;19.50;99.90
4727;DHT22;2377;51.734;8.950;2022-08-05T05:47:41;19.50;99.90
4727;DHT22;2377;51.734;8.950;2022-08-05T05:50:12;19.50;99.90
4727;DHT22;2377;51.734;8.950;2022-08-05T05:52:40;19.60;99.90
4727;DHT22;2377;51.734;8.950;2022-08-05T05:55:09;19.60;99.90
4727;DHT22;2377;51.734;8.950;2022-08-05T05:57:39;19.60;99.90
4727;DHT22;2377;51.734;8.950;2022-08-05T06:00:10;19.60;99.90
4727;DHT22;2377;51.734;8.950;2022-08-05T06:02:39;19.60;99.90
4727;DHT22;2377;51.734;8.950;2022-08-05T06:05:07;19.60;99.90
4727;DHT22;2377;51.734;8.950;2022-08-05T06:07:38;19.60;99.90
4727;DHT22;2377;51.734;8.950;2022-08-05T06:10:07;19.60;99.90
4727;DHT22;2377;51.734;8.950;2022-08-05T06:12:36;19.50;99.90
4727;DHT22;2377;51.734;8.950;2022-08-05T06:15:05;19.50;99.90
4727;DHT22;2377;51.734;8.950;2022-08-05T06:17:33;19.50;99.90
4727;DHT22;2377;51.734;8.950;2022-08-05T06:20:01;19.50;99.90
4727;DHT22;2377;51.734;8.950;2022-08-05T06:22:32;19.50;99.90
4727;DHT22;2377;51.734;8.950;2022-08-05T06:25:01;19.50;99.90
4727;DHT22;2377;51.734;8.950;2022-08-05T06:27:28;19.50;99.90
4727;DHT22;2377;51.734;8.950;2022-08-05T06:29:56;19.60;99.90
4727;DHT22;2377;51.734;8.950;2022-08-05T06:32:23;19.60;99.90
4727;DHT22;2377;51.734;8.950;2022-08-05T06:34:50;19.70;99.90
4727;DHT22;2377;51.734;8.950;2022-08-05T06:37:17;19.70;99.90
4727;DHT22;2377;51.734;8.950;2022-08-05T06:39:46;19.70;99.90
4727;DHT22;2377;51.734;8.950;2022-08-05T06:42:13;19.80;99.90
4727;DHT22;2377;51.734;8.950;2022-08-05T06:44:41;19.80;99.90
4727;DHT22;2377;51.734;8.950;2022-08-05T06:47:08;20.00;99.90
4727;DHT22;2377;51.734;8.950;2022-08-05T06:49:36;20.00;99.90
4727;DHT22;2377;51.734;8.950;2022-08-05T06:52:03;20.10;99.90
4727;DHT22;2377;51.734;8.950;2022-08-05T06:54:30;20.10;99.90
4727;DHT22;2377;51.734;8.950;2022-08-05T06:56:59;20.10;99.90
4727;DHT22;2377;51.734;8.950;2022-08-05T06:59:26;20.10;99.90
4727;DHT22;2377;51.734;8.950;2022-08-05T07:01:53;20.30;99.90
4727;DHT22;2377;51.734;8.950;2022-08-05T07:04:20;20.30;99.90
4727;DHT22;2377;51.734;8.950;2022-08-05T07:06:48;20.30;99.90
4727;DHT22;2377;51.734;8.950;2022-08-05T07:09:15;20.40;99.90
4727;DHT22;2377;51.734;8.950;2022-08-05T07:11:42;20.40;99.90
4727;DHT22;2377;51.734;8.950;2022-08-05T07:14:10;20.40;99.90
4727;DHT22;2377;51.734;8.950;2022-08-05T07:16:55;20.50;99.90
4727;DHT22;2377;51.734;8.950;2022-08-05T07:19:26;20.70;99.90
4727;DHT22;2377;51.734;8.950;2022-08-05T07:21:54;21.00;99.90
4727;DHT22;2377;51.734;8.950;2022-08-05T07:24:22;21.10;99.90
4727;DHT22;2377;51.734;8.950;2022-08-05T07:26:50;21.10;99.90
4727;DHT22;2377;51.734;8.950;2022-08-05T07:29:19;20.90;99.90
4727;DHT22;2377;51.734;8.950;2022-08-05T07:31:46;20.80;99.90
4727;DHT22;2377;51.734;8.950;2022-08-05T07:34:13;20.70;99.90
4727;DHT22;2377;51.734;8.950;2022-08-05T07:36:40;20.60;99.90
4727;DHT22;2377;51.734;8.950;2022-08-05T07:39:08;20.60;99.90
4727;DHT22;2377;51.734;8.950;2022-08-05T07:41:35;20.60;99.90
4727;DHT22;2377;51.734;8.950;2022-08-05T07:44:04;20.60;99.90
4727;DHT22;2377;51.734;8.950;2022-08-05T07:46:34;20.70;99.90
4727;DHT22;2377;51.734;8.950;2022-08-05T07:49:02;20.80;99.90
4727;DHT22;2377;51.734;8.950;2022-08-05T07:51:30;20.80;99.90
4727;DHT22;2377;51.734;8.950;2022-08-05T07:54:01;20.90;99.90
4727;DHT22;2377;51.734;8.950;2022-08-05T07:56:28;21.10;99.90
4727;DHT22;2377;51.734;8.950;2022-08-05T07:58:55;21.20;99.90
4727;DHT22;2377;51.734;8.950;2022-08-05T08:01:22;21.30;99.90
4727;DHT22;2377;51.734;8.950;2022-08-05T08:03:53;21.50;99.90
4727;DHT22;2377;51.734;8.950;2022-08-05T08:06:20;21.60;99.90
4727;DHT22;2377;51.734;8.950;2022-08-05T08:08:47;21.50;99.90
4727;DHT22;2377;51.734;8.950;2022-08-05T08:11:14;21.60;99.90
4727;DHT22;2377;51.734;8.950;2022-08-05T08:13:42;21.60;99.90
4727;DHT22;2377;51.734;8.950;2022-08-05T08:16:09;21.60;99.90
4727;DHT22;2377;51.734;8.950;2022-08-05T08:18:36;21.70;99.90
4727;DHT22;2377;51.734;8.950;2022-08-05T08:21:05;21.70;99.90
4727;DHT22;2377;51.734;8.950;2022-08-05T08:23:32;21.80;99.90
4727;DHT22;2377;51.734;8.950;2022-08-05T08:26:00;21.70;99.90
4727;DHT22;2377;51.734;8.950;2022-08-05T08:28:27;21.70;99.90
4727;DHT22;2377;51.734;8.950;2022-08-05T08:30:54;21.70;99.90
4727;DHT22;2377;51.734;8.950;2022-08-05T08:33:21;21.60;99.90
4727;DHT22;2377;51.734;8.950;2022-08-05T08:35:48;21.60;99.90
4727;DHT22;2377;51.734;8.950;2022-08-05T08:38:17;21.60;99.90
4727;DHT22;2377;51.734;8.950;2022-08-05T08:40:44;21.60;99.90
4727;DHT22;2377;51.734;8.950;2022-08-05T08:43:13;21.60;99.90
4727;DHT22;2377;51.734;8.950;2022-08-05T08:45:43;21.60;99.90
4727;DHT22;2377;51.734;8.950;2022-08-05T08:48:11;21.60;99.90
4727;DHT22;2377;51.734;8.950;2022-08-05T08:50:42;21.60;99.90
4727;DHT22;2377;51.734;8.950;2022-08-05T08:53:14;21.50;99.90
4727;DHT22;2377;51.734;8.950;2022-08-05T08:55:45;21.50;99.90
4727;DHT22;2377;51.734;8.950;2022-08-05T08:58:14;21.40;99.90
4727;DHT22;2377;51.734;8.950;2022-08-05T09:00:42;21.30;99.90
4727;DHT22;2377;51.734;8.950;2022-08-05T09:03:10;21.30;99.90
4727;DHT22;2377;51.734;8.950;2022-08-05T09:05:37;21.20;99.90
4727;DHT22;2377;51.734;8.950;2022-08-05T09:08:04;21.20;99.90
4727;DHT22;2377;51.734;8.950;2022-08-05T09:10:33;21.20;99.90
4727;DHT22;2377;51.734;8.950;2022-08-05T09:13:01;21.30;99.90
4727;DHT22;2377;51.734;8.950;2022-08-05T09:15:28;21.30;99.90
4727;DHT22;2377;51.734;8.950;2022-08-05T09:17:55;21.30;99.90
4727;DHT22;2377;51.734;8.950;2022-08-05T09:20:22;21.30;99.90
4727;DHT22;2377;51.734;8.950;2022-08-05T09:23:07;21.30;99.90
4727;DHT22;2377;51.734;8.950;2022-08-05T09:25:38;21.30;99.90
4727;DHT22;2377;51.734;8.950;2022-08-05T09:28:12;21.20;99.90
4727;DHT22;2377;51.734;8.950;2022-08-05T09:30:51;21.10;99.90
4727;DHT22;2377;51.734;8.950;2022-08-05T09:33:20;21.10;99.90
4727;DHT22;2377;51.734;8.950;2022-08-05T09:35:58;21.10;99.90
4727;DHT22;2377;51.734;8.950;2022-08-05T09:38:26;21.10;99.90
4727;DHT22;2377;51.734;8.950;2022-08-05T09:41:01;21.20;99.90
4727;DHT22;2377;51.734;8.950;2022-08-05T09:43:31;21.20;99.90
4727;DHT22;2377;51.734;8.950;2022-08-05T09:45:59;21.10;99.90
4727;DHT22;2377;51.734;8.950;2022-08-05T09:48:29;21.00;99.90
4727;DHT22;2377;51.734;8.950;2022-08-05T09:50:59;20.90;99.90
4727;DHT22;2377;51.734;8.950;2022-08-05T09:53:28;20.80;99.90
4727;DHT22;2377;51.734;8.950;2022-08-05T09:55:57;20.80;99.90
4727;DHT22;2377;51.734;8.950;2022-08-05T09:58:27;20.70;99.90
4727;DHT22;2377;51.734;8.950;2022-08-05T10:00:57;20.60;99.90
4727;DHT22;2377;51.734;8.950;2022-08-05T10:03:25;20.50;99.90
4727;DHT22;2377;51.734;8.950;2022-08-05T10:06:01;20.50;99.90
4727;DHT22;2377;51.734;8.950;2022-08-05T10:08:34;20.40;99.90
4727;DHT22;2377;51.734;8.950;2022-08-05T10:11:04;20.40;99.90
4727;DHT22;2377;51.734;8.950;2022-08-05T10:13:39;20.30;99.90
4727;DHT22;2377;51.734;8.950;2022-08-05T10:16:28;20.20;99.90
4727;DHT22;2377;51.734;8.950;2022-08-05T10:19:00;20.10;99.90
4727;DHT22;2377;51.734;8.950;2022-08-05T10:21:28;20.00;99.90
4727;DHT22;2377;51.734;8.950;2022-08-05T10:23:55;20.00;99.90
4727;DHT22;2377;51.734;8.950;2022-08-05T10:26:24;19.90;99.90
4727;DHT22;2377;51.734;8.950;2022-08-05T10:28:51;19.80;99.90
4727;DHT22;2377;51.734;8.950;2022-08-05T10:31:18;19.80;99.90
4727;DHT22;2377;51.734;8.950;2022-08-05T10:33:45;19.80;99.90
4727;DHT22;2377;51.734;8.950;2022-08-05T10:36:13;19.80;99.90
4727;DHT22;2377;51.734;8.950;2022-08-05T10:38:43;19.60;99.90
4727;DHT22;2377;51.734;8.950;2022-08-05T10:41:17;19.60;99.90
4727;DHT22;2377;51.734;8.950;2022-08-05T10:43:57;19.50;99.90
4727;DHT22;2377;51.734;8.950;2022-08-05T10:46:42;19.30;99.90
4727;DHT22;2377;51.734;8.950;2022-08-05T10:49:11;19.20;99.90
4727;DHT22;2377;51.734;8.950;2022-08-05T10:51:42;19.00;99.90
4727;DHT22;2377;51.734;8.950;2022-08-05T10:54:10;18.90;99.90
4727;DHT22;2377;51.734;8.950;2022-08-05T10:56:44;18.90;99.90
4727;DHT22;2377;51.734;8.950;2022-08-05T10:59:17;18.80;99.90
4727;DHT22;2377;51.734;8.950;2022-08-05T11:01:45;18.80;99.90
4727;DHT22;2377;51.734;8.950;2022-08-05T11:04:13;18.70;99.90
4727;DHT22;2377;51.734;8.950;2022-08-05T11:07:04;18.80;99.90
4727;DHT22;2377;51.734;8.950;2022-08-05T11:09:41;18.70;99.90
4727;DHT22;2377;51.734;8.950;2022-08-05T11:12:43;18.70;99.90
4727;DHT22;2377;51.734;8.950;2022-08-05T11:15:20;18.60;99.90
4727;DHT22;2377;51.734;8.950;2022-08-05T11:17:50;18.50;99.90
4727;DHT22;2377;51.734;8.950;2022-08-05T11:20:37;18.50;99.90
4727;DHT22;2377;51.734;8.950;2022-08-05T11:23:42;18.30;99.90
4727;DHT22;2377;51.734;8.950;2022-08-05T11:26:21;18.30;99.90
4727;DHT22;2377;51.734;8.950;2022-08-05T11:28:51;18.30;99.90
4727;DHT22;2377;51.734;8.950;2022-08-05T11:31:26;18.20;99.90
4727;DHT22;2377;51.734;8.950;2022-08-05T11:33:59;18.20;99.90
4727;DHT22;2377;51.734;8.950;2022-08-05T11:39:46;18.20;99.90
4727;DHT22;2377;51.734;8.950;2022-08-05T11:42:18;18.10;99.90
4727;DHT22;2377;51.734;8.950;2022-08-05T11:44:51;18.20;99.90
4727;DHT22;2377;51.734;8.950;2022-08-05T11:47:29;18.10;99.90
4727;DHT22;2377;51.734;8.950;2022-08-05T11:49:58;18.10;99.90
4727;DHT22;2377;51.734;8.950;2022-08-05T11:52:27;18.20;99.90
4727;DHT22;2377;51.734;8.950;2022-08-05T11:54:55;18.30;99.90
4727;DHT22;2377;51.734;8.950;2022-08-05T11:57:27;18.30;99.90
4727;DHT22;2377;51.734;8.950;2022-08-05T11:59:56;18.10;99.90
4727;DHT22;2377;51.734;8.950;2022-08-05T12:02:25;18.20;99.90
4727;DHT22;2377;51.734;8.950;2022-08-05T12:04:57;18.20;99.90
4727;DHT22;2377;51.734;8.950;2022-08-05T12:07:25;18.10;99.90
4727;DHT22;2377;51.734;8.950;2022-08-05T12:09:54;18.10;99.90
4727;DHT22;2377;51.734;8.950;2022-08-05T12:12:25;18.10;99.90
4727;DHT22;2377;51.734;8.950;2022-08-05T12:14:54;18.10;99.90
4727;DHT22;2377;51.734;8.950;2022-08-05T12:17:22;18.20;99.90
4727;DHT22;2377;51.734;8.950;2022-08-05T12:19:54;18.30;99.90
4727;DHT22;2377;51.734;8.950;2022-08-05T12:22:26;18.30;99.90
4727;DHT22;2377;51.734;8.950;2022-08-05T12:24:54;18.40;99.90
4727;DHT22;2377;51.734;8.950;2022-08-05T12:27:23;18.60;99.90
4727;DHT22;2377;51.734;8.950;2022-08-05T12:30:00;18.70;99.90
4727;DHT22;2377;51.734;8.950;2022-08-05T12:32:30;18.80;99.90
4727;DHT22;2377;51.734;8.950;2022-08-05T12:35:01;18.80;99.90
4727;DHT22;2377;51.734;8.950;2022-08-05T12:37:29;18.80;99.90
4727;DHT22;2377;51.734;8.950;2022-08-05T12:39:57;18.90;99.90
4727;DHT22;2377;51.734;8.950;2022-08-05T12:42:28;19.00;99.90
4727;DHT22;2377;51.734;8.950;2022-08-05T12:45:00;19.10;99.90
4727;DHT22;2377;51.734;8.950;2022-08-05T12:47:29;19.30;99.90
4727;DHT22;2377;51.734;8.950;2022-08-05T12:49:57;19.20;99.90
4727;DHT22;2377;51.734;8.950;2022-08-05T12:52:27;19.30;99.90
4727;DHT22;2377;51.734;8.950;2022-08-05T12:54:54;19.30;99.90
4727;DHT22;2377;51.734;8.950;2022-08-05T12:57:22;19.30;99.90
4727;DHT22;2377;51.734;8.950;2022-08-05T12:59:50;19.40;99.90
4727;DHT22;2377;51.734;8.950;2022-08-05T13:02:20;19.30;99.90
4727;DHT22;2377;51.734;8.950;2022-08-05T13:04:50;19.30;99.90
4727;DHT22;2377;51.734;8.950;2022-08-05T13:07:21;19.30;99.90
4727;DHT22;2377;51.734;8.950;2022-08-05T13:09:52;19.20;99.90
4727;DHT22;2377;51.734;8.950;2022-08-05T13:12:22;19.30;99.90
4727;DHT22;2377;51.734;8.950;2022-08-05T13:14:56;19.50;99.90
4727;DHT22;2377;51.734;8.950;2022-08-05T13:17:26;19.40;99.90
4727;DHT22;2377;51.734;8.950;2022-08-05T13:19:58;19.30;99.90
4727;DHT22;2377;51.734;8.950;2022-08-05T13:22:28;19.40;99.90
4727;DHT22;2377;51.734;8.950;2022-08-05T13:24:58;19.50;99.90
4727;DHT22;2377;51.734;8.950;2022-08-05T13:27:29;19.50;99.90
4727;DHT22;2377;51.734;8.950;2022-08-05T13:29:58;19.40;99.90
4727;DHT22;2377;51.734;8.950;2022-08-05T13:32:26;19.40;99.90
4727;DHT22;2377;51.734;8.950;2022-08-05T13:34:54;19.30;99.90
4727;DHT22;2377;51.734;8.950;2022-08-05T13:37:21;19.30;99.90
4727;DHT22;2377;51.734;8.950;2022-08-05T13:39:49;19.40;99.90
4727;DHT22;2377;51.734;8.950;2022-08-05T13:42:19;19.60;99.90
4727;DHT22;2377;51.734;8.950;2022-08-05T13:44:50;19.70;99.90
4727;DHT22;2377;51.734;8.950;2022-08-05T13:47:19;19.80;99.90
4727;DHT22;2377;51.734;8.950;2022-08-05T13:49:46;19.80;99.90
4727;DHT22;2377;51.734;8.950;2022-08-05T13:52:15;19.90;99.90
4727;DHT22;2377;51.734;8.950;2022-08-05T13:54:44;20.00;99.90
4727;DHT22;2377;51.734;8.950;2022-08-05T13:57:12;20.00;99.90
4727;DHT22;2377;51.734;8.950;2022-08-05T13:59:41;20.10;99.90
4727;DHT22;2377;51.734;8.950;2022-08-05T14:02:11;20.10;99.90
4727;DHT22;2377;51.734;8.950;2022-08-05T14:04:42;20.10;99.90
4727;DHT22;2377;51.734;8.950;2022-08-05T14:07:29;20.10;99.90
4727;DHT22;2377;51.734;8.950;2022-08-05T14:09:58;20.10;99.90
4727;DHT22;2377;51.734;8.950;2022-08-05T14:12:25;20.10;99.90
4727;DHT22;2377;51.734;8.950;2022-08-05T14:14:54;20.20;99.90
4727;DHT22;2377;51.734;8.950;2022-08-05T14:17:21;20.30;64.90
4727;DHT22;2377;51.734;8.950;2022-08-05T14:19:51;20.20;99.90
4727;DHT22;2377;51.734;8.950;2022-08-05T14:22:19;20.30;55.70
4727;DHT22;2377;51.734;8.950;2022-08-05T14:24:47;20.30;50.90
4727;DHT22;2377;51.734;8.950;2022-08-05T14:27:15;20.30;59.10
4727;DHT22;2377;51.734;8.950;2022-08-05T14:29:42;20.30;92.00
4727;DHT22;2377;51.734;8.950;2022-08-05T14:32:10;20.40;89.80
4727;DHT22;2377;51.734;8.950;2022-08-05T14:34:37;20.50;72.90
4727;DHT22;2377;51.734;8.950;2022-08-05T14:37:05;20.60;78.50
4727;DHT22;2377;51.734;8.950;2022-08-05T14:39:32;20.60;91.60
4727;DHT22;2377;51.734;8.950;2022-08-05T14:41:59;20.60;67.40
4727;DHT22;2377;51.734;8.950;2022-08-05T14:44:27;20.60;86.40
4727;DHT22;2377;51.734;8.950;2022-08-05T14:46:54;20.70;79.80
4727;DHT22;2377;51.734;8.950;2022-08-05T14:49:23;20.70;71.50
4727;DHT22;2377;51.734;8.950;2022-08-05T14:51:50;20.80;54.40
4727;DHT22;2377;51.734;8.950;2022-08-05T14:54:17;21.00;46.60
4727;DHT22;2377;51.734;8.950;2022-08-05T14:56:44;20.90;28.40
4727;DHT22;2377;51.734;8.950;2022-08-05T14:59:11;21.00;39.90
4727;DHT22;2377;51.734;8.950;2022-08-05T15:01:38;21.00;43.10
4727;DHT22;2377;51.734;8.950;2022-08-05T15:04:06;21.00;19.00
4727;DHT22;2377;51.734;8.950;2022-08-05T15:06:37;21.00;18.70
4727;DHT22;2377;51.734;8.950;2022-08-05T15:09:05;21.10;1.00
4727;DHT22;2377;51.734;8.950;2022-08-05T15:11:32;21.10;29.80
4727;DHT22;2377;51.734;8.950;2022-08-05T15:14:01;21.10;14.30
4727;DHT22;2377;51.734;8.950;2022-08-05T15:16:28;21.00;20.60
4727;DHT22;2377;51.734;8.950;2022-08-05T15:18:56;20.90;23.20
4727;DHT22;2377;51.734;8.950;2022-08-05T15:21:23;20.80;49.70
4727;DHT22;2377;51.734;8.950;2022-08-05T15:23:51;20.60;46.60
4727;DHT22;2377;51.734;8.950;2022-08-05T15:26:19;20.60;69.60
4727;DHT22;2377;51.734;8.950;2022-08-05T15:28:46;20.60;80.90
4727;DHT22;2377;51.734;8.950;2022-08-05T15:31:13;20.60;99.90
4727;DHT22;2377;51.734;8.950;2022-08-05T15:33:40;20.80;85.20
4727;DHT22;2377;51.734;8.950;2022-08-05T15:36:08;20.90;79.00
4727;DHT22;2377;51.734;8.950;2022-08-05T15:38:36;21.00;83.10
4727;DHT22;2377;51.734;8.950;2022-08-05T15:41:04;21.10;64.90
4727;DHT22;2377;51.734;8.950;2022-08-05T15:43:31;21.20;57.40
4727;DHT22;2377;51.734;8.950;2022-08-05T15:46:00;21.20;42.80
4727;DHT22;2377;51.734;8.950;2022-08-05T15:48:27;21.10;66.00
4727;DHT22;2377;51.734;8.950;2022-08-05T15:50:55;21.10;99.90
4727;DHT22;2377;51.734;8.950;2022-08-05T15:53:22;21.00;71.80
4727;DHT22;2377;51.734;8.950;2022-08-05T15:55:49;20.90;80.90
4727;DHT22;2377;51.734;8.950;2022-08-05T15:58:18;20.90;99.90
4727;DHT22;2377;51.734;8.950;2022-08-05T16:00:45;21.00;92.50
4727;DHT22;2377;51.734;8.950;2022-08-05T16:03:12;21.00;80.50
4727;DHT22;2377;51.734;8.950;2022-08-05T16:05:39;21.00;93.00
4727;DHT22;2377;51.734;8.950;2022-08-05T16:08:06;20.90;99.90
4727;DHT22;2377;51.734;8.950;2022-08-05T16:10:34;20.90;82.80
4727;DHT22;2377;51.734;8.950;2022-08-05T16:13:01;21.00;71.80
4727;DHT22;2377;51.734;8.950;2022-08-05T16:15:29;20.90;78.30
4727;DHT22;2377;51.734;8.950;2022-08-05T16:17:56;20.80;60.80
4727;DHT22;2377;51.734;8.950;2022-08-05T16:20:23;20.70;80.80